Time;durP1;ratioP1;P1;durP2;ratioP2;P2;SDS_P1;SDS_P2;PMS_P1;PMS_P2;Temp;Humidity;BMP_temperature;BMP_pressure;BME280_temperature;BME280_humidity;BME280_pressure;Samples;Min_cycle;Max_cycle;Signal;HPM_P1;HPM_P2
2022/09/13 00:01:26;;;;;;;;;;;;;;;16.60;69.24;100655.25;5071461;28;19994;-77
2022/09/13 00:03:52;;;;;;;;;;;;;;;16.58;68.38;100651.00;5089956;28;19920;-77
2022/09/13 00:06:18;;;;;;;;;;;;;;;16.57;68.41;100644.06;5072327;28;19920;-77
2022/09/13 00:08:44;;;;;;;;;;;;;;;16.58;68.15;100635.28;5093113;28;19920;-77
2022/09/13 00:11:15;;;;;;;;;;;;;;;16.60;68.66;100636.06;5095304;28;20330;-77
2022/09/13 00:13:40;;;;;;;;;;;;;;;16.51;68.68;100632.94;5088573;28;19919;-77
2022/09/13 00:16:10;;;;;;;;;;;;;;;16.55;68.52;100638.88;5073237;28;19923;-77
2022/09/13 00:18:35;;;;;;;;;;;;;;;16.52;68.80;100634.63;5090067;28;19916;-77
2022/09/13 00:21:08;;;;;;;;;;;;;;;16.46;69.57;100628.84;5091041;28;19927;-77
2022/09/13 00:23:35;;;;;;;;;;;;;;;16.50;69.29;100622.53;5090282;28;20312;-77
2022/09/13 00:26:08;;;;;;;;;;;;;;;16.51;69.20;100619.00;5090209;28;19924;-77
2022/09/13 00:28:33;;;;;;;;;;;;;;;16.53;69.16;100612.75;5091508;28;19920;-76
2022/09/13 00:31:02;;;;;;;;;;;;;;;16.52;69.51;100607.59;5091063;28;20592;-77
2022/09/13 00:33:28;;;;;;;;;;;;;;;16.48;69.49;100612.13;5088819;28;19924;-76
2022/09/13 00:35:53;;;;;;;;;;;;;;;16.50;69.55;100610.25;5090181;28;20447;-77
2022/09/13 00:38:18;;;;;;;;;;;;;;;16.49;69.95;100629.53;5090751;28;19931;-77
2022/09/13 00:40:43;;;;;;;;;;;;;;;16.48;69.41;100633.09;5089371;28;19966;-77
2022/09/13 00:43:16;;;;;;;;;;;;;;;16.50;69.27;100633.88;5091229;28;19920;-76
2022/09/13 00:45:41;;;;;;;;;;;;;;;16.52;69.35;100634.63;5087978;28;19920;-77
2022/09/13 00:48:08;;;;;;;;;;;;;;;16.48;70.22;100629.63;5091201;28;21529;-77
2022/09/13 00:50:33;;;;;;;;;;;;;;;16.42;70.03;100622.03;5087656;28;19939;-77
2022/09/13 00:53:04;;;;;;;;;;;;;;;16.43;70.39;100618.50;5089970;28;20315;-77
2022/09/13 00:55:33;;;;;;;;;;;;;;;16.46;70.15;100619.19;5071157;28;19912;-77
2022/09/13 00:58:02;;;;;;;;;;;;;;;16.46;70.28;100616.56;5093106;28;19928;-77
2022/09/13 01:00:27;;;;;;;;;;;;;;;16.42;70.37;100606.31;5090045;28;19916;-77
2022/09/13 01:02:57;;;;;;;;;;;;;;;16.43;70.81;100610.66;5093801;28;19920;-77
2022/09/13 01:05:26;;;;;;;;;;;;;;;16.44;70.07;100622.81;5085476;28;20008;-76
2022/09/13 01:07:52;;;;;;;;;;;;;;;16.41;69.64;100618.56;5096248;28;20296;-77
2022/09/13 01:10:17;;;;;;;;;;;;;;;16.36;70.60;100633.66;5092557;28;19926;-76
2022/09/13 01:12:49;;;;;;;;;;;;;;;16.36;70.45;100628.44;5092634;28;20016;-76
2022/09/13 01:15:15;;;;;;;;;;;;;;;16.37;70.84;100629.28;5090242;28;19916;-77
2022/09/13 01:17:40;;;;;;;;;;;;;;;16.33;70.10;100633.81;5073473;28;20015;-77
2022/09/13 01:20:07;;;;;;;;;;;;;;;16.38;69.49;100636.22;5092999;28;19927;-77
2022/09/13 01:22:50;;;;;;;;;;;;;;;16.37;69.93;100632.72;5071418;28;19912;-77
2022/09/13 01:25:37;;;;;;;;;;;;;;;16.35;70.22;100629.34;5091054;28;20058;-77
2022/09/13 01:28:20;;;;;;;;;;;;;;;16.38;69.99;100629.19;5089395;28;19927;-77
2022/09/13 01:30:53;;;;;;;;;;;;;;;16.40;69.98;100632.59;5089268;28;19927;-77
2022/09/13 01:33:33;;;;;;;;;;;;;;;16.32;70.50;100632.09;5090280;28;20011;-77
2022/09/13 01:36:17;;;;;;;;;;;;;;;16.32;70.52;100631.25;5090840;28;20009;-77
2022/09/13 01:39:04;;;;;;;;;;;;;;;16.28;69.69;100625.31;5085957;28;20406;-77
2022/09/13 01:41:52;;;;;;;;;;;;;;;16.39;69.41;100627.44;5086730;28;19927;-77
2022/09/13 01:44:35;;;;;;;;;;;;;;;16.29;69.70;100634.88;5083877;28;19928;-77
2022/09/13 01:47:06;;;;;;;;;;;;;;;16.32;69.89;100631.25;5088362;28;19928;-77
2022/09/13 01:49:31;;;;;;;;;;;;;;;16.35;69.77;100631.97;5087912;28;19927;-77
2022/09/13 01:52:00;;;;;;;;;;;;;;;16.33;69.98;100622.47;5088940;28;19921;-77
2022/09/13 01:54:36;;;;;;;;;;;;;;;16.38;69.74;100626.56;5086215;28;20308;-77
2022/09/13 01:57:11;;;;;;;;;;;;;;;16.35;70.16;100629.34;5090501;28;19955;-77
2022/09/13 01:59:42;;;;;;;;;;;;;;;16.39;70.41;100627.44;5087847;28;20292;-77
2022/09/13 02:02:14;;;;;;;;;;;;;;;16.38;70.35;100623.09;5069166;28;20419;-77
2022/09/13 02:04:42;;;;;;;;;;;;;;;16.38;70.38;100616.09;5088046;28;20016;-77
2022/09/13 02:07:16;;;;;;;;;;;;;;;16.42;70.53;100614.19;5085245;28;19911;-77
2022/09/13 02:09:44;;;;;;;;;;;;;;;16.39;70.33;100614.31;5086604;28;19924;-77
2022/09/13 02:12:13;;;;;;;;;;;;;;;16.38;70.66;100620.47;5090601;28;19916;-77
2022/09/13 02:14:40;;;;;;;;;;;;;;;16.40;70.11;100613.41;5089186;28;20452;-77
2022/09/13 02:17:12;;;;;;;;;;;;;;;16.39;70.41;100612.56;5089071;28;19924;-77
2022/09/13 02:19:40;;;;;;;;;;;;;;;16.41;70.21;100609.84;5089064;28;19968;-76
2022/09/13 02:22:07;;;;;;;;;;;;;;;16.34;70.82;100621.56;5091195;28;19943;-76
2022/09/13 02:24:34;;;;;;;;;;;;;;;16.33;70.55;100602.34;5088459;28;20419;-77
2022/09/13 02:27:06;;;;;;;;;;;;;;;16.37;70.76;100608.31;5087425;28;20376;-77
2022/09/13 02:29:33;;;;;;;;;;;;;;;16.37;70.71;100600.44;5087093;28;19928;-77
2022/09/13 02:32:14;;;;;;;;;;;;;;;16.39;70.42;100602.06;5079798;28;20641;-77
2022/09/13 02:34:46;;;;;;;;;;;;;;;16.41;70.61;100599.34;5087444;28;19916;-77
2022/09/13 02:37:12;;;;;;;;;;;;;;;16.39;70.95;100595.97;5088331;28;20038;-77
2022/09/13 02:39:43;;;;;;;;;;;;;;;16.42;70.91;100603.69;5088445;28;20023;-77
2022/09/13 02:42:21;;;;;;;;;;;;;;;16.41;70.76;100592.34;5085811;28;19973;-77
2022/09/13 02:44:51;;;;;;;;;;;;;;;16.41;70.21;100588.88;5085127;28;19928;-77
2022/09/13 02:47:21;;;;;;;;;;;;;;;16.46;70.82;100586.91;5086602;28;20007;-77
2022/09/13 02:49:52;;;;;;;;;;;;;;;16.47;70.73;100589.44;5069800;28;19928;-77
2022/09/13 02:52:36;;;;;;;;;;;;;;;16.46;70.58;100584.28;5084022;28;20525;-77
2022/09/13 02:55:20;;;;;;;;;;;;;;;16.42;70.79;100593.19;5083177;28;19935;-77
2022/09/13 02:58:04;;;;;;;;;;;;;;;16.47;71.18;100594.69;5085869;28;19928;-76
2022/09/13 03:00:30;;;;;;;;;;;;;;;16.49;71.03;100598.06;5080557;28;20463;-76
2022/09/13 03:02:57;;;;;;;;;;;;;;;16.50;70.17;100593.69;5098353;28;20318;-76
2022/09/13 03:05:22;;;;;;;;;;;;;;;16.55;70.81;100603.97;5087170;28;19969;-76
2022/09/13 03:07:48;;;;;;;;;;;;;;;16.53;70.89;100598.78;5082131;28;20633;-77
2022/09/13 03:10:14;;;;;;;;;;;;;;;16.55;70.71;100601.34;5067634;28;20003;-77
2022/09/13 03:12:42;;;;;;;;;;;;;;;16.55;70.95;100594.28;5085963;28;19977;-76
2022/09/13 03:15:07;;;;;;;;;;;;;;;16.56;70.92;100600.41;5088965;28;19924;-77
2022/09/13 03:17:43;;;;;;;;;;;;;;;16.53;71.05;100606.63;5088037;28;19927;-77
2022/09/13 03:20:12;;;;;;;;;;;;;;;16.53;70.17;100594.38;5086693;28;19927;-77
2022/09/13 03:22:40;;;;;;;;;;;;;;;16.57;69.64;100587.22;5087247;28;19916;-76
2022/09/13 03:25:12;;;;;;;;;;;;;;;16.58;70.33;100588.91;5087830;28;20289;-76
2022/09/13 03:27:45;;;;;;;;;;;;;;;16.57;70.59;100581.97;5071127;28;19924;-77
2022/09/13 03:30:12;;;;;;;;;;;;;;;16.56;70.69;100579.41;5087148;28;19935;-77
2022/09/13 03:32:49;;;;;;;;;;;;;;;16.58;71.27;100573.16;5089095;28;19920;-77
2022/09/13 03:35:24;;;;;;;;;;;;;;;16.60;70.63;100570.50;5070571;28;20415;-77
2022/09/13 03:37:50;;;;;;;;;;;;;;;16.59;70.93;100574.88;5089444;28;20391;-77
2022/09/13 03:40:19;;;;;;;;;;;;;;;16.57;70.80;100568.88;5083959;28;19916;-77
2022/09/13 03:42:51;;;;;;;;;;;;;;;16.57;70.20;100562.78;5086804;28;19916;-77
2022/09/13 03:45:19;;;;;;;;;;;;;;;16.58;70.35;100562.69;5086606;28;19924;-77
2022/09/13 03:47:45;;;;;;;;;;;;;;;16.57;70.91;100561.00;5088769;28;20077;-77
2022/09/13 03:50:14;;;;;;;;;;;;;;;16.56;71.52;100564.53;5086286;28;19950;-77
2022/09/13 03:52:41;;;;;;;;;;;;;;;16.55;71.18;100554.13;5088052;28;19916;-76
2022/09/13 03:55:06;;;;;;;;;;;;;;;16.59;70.78;100559.13;5085368;28;19989;-76
2022/09/13 03:57:32;;;;;;;;;;;;;;;16.55;70.94;100562.81;5086862;28;20413;-77
2022/09/13 03:59:57;;;;;;;;;;;;;;;16.50;71.03;100552.56;5086138;28;19936;-77
2022/09/13 04:02:23;;;;;;;;;;;;;;;16.50;70.15;100557.81;5083823;28;19920;-77
2022/09/13 04:04:49;;;;;;;;;;;;;;;16.50;70.23;100551.72;5073511;28;19924;-77
2022/09/13 04:07:18;;;;;;;;;;;;;;;16.47;70.63;100559.75;5086915;28;19969;-77
2022/09/13 04:09:44;;;;;;;;;;;;;;;16.44;71.18;100557.25;5084643;28;20304;-77
2022/09/13 04:12:10;;;;;;;;;;;;;;;16.46;69.52;100563.31;5098107;28;20387;-77
2022/09/13 04:14:35;;;;;;;;;;;;;;;16.44;69.95;100573.84;5088287;28;19920;-77
2022/09/13 04:17:00;;;;;;;;;;;;;;;16.45;70.51;100572.94;5072350;28;19920;-77
2022/09/13 04:19:26;;;;;;;;;;;;;;;16.46;70.66;100576.41;5086645;28;20006;-76
2022/09/13 04:21:52;;;;;;;;;;;;;;;16.36;70.92;100577.75;5091312;28;19959;-76
2022/09/13 04:24:17;;;;;;;;;;;;;;;16.42;70.63;100590.59;5093341;28;20015;-77
2022/09/13 04:26:43;;;;;;;;;;;;;;;16.46;70.36;100592.97;5089236;28;19984;-77
2022/09/13 04:29:10;;;;;;;;;;;;;;;16.51;70.15;100582.28;5095348;28;19924;-77
2022/09/13 04:31:35;;;;;;;;;;;;;;;16.46;69.45;100590.34;5098294;28;19912;-77
2022/09/13 04:34:00;;;;;;;;;;;;;;;16.48;69.91;100590.28;5092347;28;19920;-77
2022/09/13 04:36:26;;;;;;;;;;;;;;;16.43;69.59;100587.03;5088004;28;19927;-77
2022/09/13 04:38:51;;;;;;;;;;;;;;;16.41;69.94;100588.88;5089820;28;20100;-77
2022/09/13 04:41:16;;;;;;;;;;;;;;;16.42;70.36;100595.81;5090488;28;19978;-77
2022/09/13 04:43:42;;;;;;;;;;;;;;;16.45;69.71;100601.78;5090803;28;19912;-77
2022/09/13 04:46:07;;;;;;;;;;;;;;;16.46;70.05;100607.88;5090209;28;19908;-77
2022/09/13 04:48:33;;;;;;;;;;;;;;;16.49;69.72;100607.72;5069986;28;19928;-77
2022/09/13 04:51:03;;;;;;;;;;;;;;;16.48;69.33;100603.41;5068712;28;19974;-77
2022/09/13 04:53:29;;;;;;;;;;;;;;;16.41;70.52;100607.22;5090254;28;20091;-76
2022/09/13 04:55:58;;;;;;;;;;;;;;;16.41;70.59;100600.22;5071978;28;20466;-77
2022/09/13 04:58:24;;;;;;;;;;;;;;;16.43;70.15;100600.16;5087323;28;19927;-77
2022/09/13 05:00:55;;;;;;;;;;;;;;;16.47;69.94;100605.16;5085059;28;19920;-77
2022/09/13 05:03:20;;;;;;;;;;;;;;;16.42;70.49;100601.06;5088391;28;19931;-77
2022/09/13 05:05:46;;;;;;;;;;;;;;;16.44;70.47;100601.84;5088812;28;20537;-77
2022/09/13 05:08:11;;;;;;;;;;;;;;;16.42;70.67;100598.44;5092160;28;20268;-77
2022/09/13 05:10:36;;;;;;;;;;;;;;;16.42;71.28;100603.69;5091792;28;19919;-76
2022/09/13 05:13:01;;;;;;;;;;;;;;;16.44;70.57;100604.47;5071126;28;19924;-77
2022/09/13 05:15:27;;;;;;;;;;;;;;;16.42;71.11;100603.69;5088725;28;20281;-77
2022/09/13 05:17:52;;;;;;;;;;;;;;;16.46;71.02;100600.84;5074510;28;19922;-77
2022/09/13 05:20:17;;;;;;;;;;;;;;;16.47;71.10;100596.44;5088379;28;19963;-77
2022/09/13 05:22:42;;;;;;;;;;;;;;;16.49;71.13;100594.63;5069586;28;19920;-77
2022/09/13 05:25:08;;;;;;;;;;;;;;;16.43;70.68;100597.53;5080684;28;19935;-77
2022/09/13 05:27:33;;;;;;;;;;;;;;;16.48;70.61;100593.75;5088929;28;19926;-77
2022/09/13 05:29:58;;;;;;;;;;;;;;;16.48;70.71;100596.38;5070185;28;19987;-76
2022/09/13 05:32:24;;;;;;;;;;;;;;;16.54;71.00;100595.25;5068667;28;20002;-77
2022/09/13 05:34:49;;;;;;;;;;;;;;;16.49;71.34;100602.50;5092001;28;19926;-78
2022/09/13 05:37:14;;;;;;;;;;;;;;;16.49;71.01;100597.25;5092358;28;19924;-77
2022/09/13 05:39:39;;;;;;;;;;;;;;;16.50;70.82;100591.91;5093196;28;20003;-77
2022/09/13 05:42:05;;;;;;;;;;;;;;;16.52;71.30;100595.28;5090491;28;19928;-77
2022/09/13 05:44:30;;;;;;;;;;;;;;;16.55;70.58;100604.78;5070178;28;19942;-77
2022/09/13 05:46:56;;;;;;;;;;;;;;;16.54;70.88;100608.34;5090427;28;19912;-77
2022/09/13 05:49:21;;;;;;;;;;;;;;;16.57;71.06;100605.59;5088536;28;19920;-76
2022/09/13 05:51:47;;;;;;;;;;;;;;;16.60;70.73;100599.34;5088715;28;19970;-77
2022/09/13 05:54:12;;;;;;;;;;;;;;;16.60;70.65;100599.34;5092868;28;20277;-77
2022/09/13 05:56:37;;;;;;;;;;;;;;;16.62;70.88;100585.22;5088132;28;20015;-77
2022/09/13 05:59:03;;;;;;;;;;;;;;;16.66;70.47;100578.06;5086377;28;20002;-77
2022/09/13 06:01:28;;;;;;;;;;;;;;;16.64;70.84;100572.88;5087462;28;19920;-77
2022/09/13 06:03:55;;;;;;;;;;;;;;;16.67;70.55;100571.91;5074982;28;19924;-76
2022/09/13 06:06:20;;;;;;;;;;;;;;;16.66;70.86;100568.41;5084578;28;19970;-77
2022/09/13 06:08:46;;;;;;;;;;;;;;;16.67;70.59;100570.09;5068876;28;19959;-77
2022/09/13 06:11:12;;;;;;;;;;;;;;;16.67;70.88;100580.59;5086237;28;19927;-77
2022/09/13 06:13:38;;;;;;;;;;;;;;;16.67;69.96;100591.09;5087895;28;19916;-77
2022/09/13 06:16:05;;;;;;;;;;;;;;;16.66;69.77;100602.53;5088753;28;20335;-77
2022/09/13 06:18:31;;;;;;;;;;;;;;;16.67;69.78;100598.13;5088458;28;19966;-77
2022/09/13 06:20:58;;;;;;;;;;;;;;;16.68;70.03;100598.03;5088644;28;19916;-77
2022/09/13 06:23:23;;;;;;;;;;;;;;;16.73;70.23;100592.63;5086694;28;19924;-77
2022/09/13 06:25:48;;;;;;;;;;;;;;;16.75;69.98;100593.38;5087341;28;19981;-77
2022/09/13 06:28:14;;;;;;;;;;;;;;;16.76;69.97;100593.28;5089868;28;19998;-77
2022/09/13 06:30:39;;;;;;;;;;;;;;;16.76;70.33;100582.78;5083907;28;19932;-77
2022/09/13 06:33:04;;;;;;;;;;;;;;;16.76;70.16;100582.78;5085737;28;20010;-77
2022/09/13 06:35:30;;;;;;;;;;;;;;;16.82;69.77;100585.13;5087123;28;20011;-77
2022/09/13 06:37:56;;;;;;;;;;;;;;;16.82;69.33;100579.00;5091003;28;20059;-77
2022/09/13 06:40:22;;;;;;;;;;;;;;;16.85;69.26;100581.47;5088037;28;20397;-77
2022/09/13 06:42:47;;;;;;;;;;;;;;;16.87;68.96;100580.50;5073961;28;20011;-77
2022/09/13 06:45:12;;;;;;;;;;;;;;;16.86;69.10;100583.19;5069273;28;19952;-77
2022/09/13 06:47:38;;;;;;;;;;;;;;;16.84;67.86;100575.41;5090194;28;19924;-77
2022/09/13 06:50:03;;;;;;;;;;;;;;;16.88;68.76;100573.47;5069893;28;19931;-77
2022/09/13 06:52:28;;;;;;;;;;;;;;;16.94;68.62;100573.16;5089001;28;19920;-77
2022/09/13 06:54:54;;;;;;;;;;;;;;;16.92;68.81;100578.50;5087761;28;19979;-77
2022/09/13 06:57:19;;;;;;;;;;;;;;;16.94;68.99;100579.25;5084430;28;20541;-77
2022/09/13 06:59:44;;;;;;;;;;;;;;;16.93;68.90;100581.97;5086558;28;20005;-77
2022/09/13 07:02:10;;;;;;;;;;;;;;;16.94;68.48;100584.50;5086757;28;19924;-77
2022/09/13 07:04:35;;;;;;;;;;;;;;;16.97;69.45;100584.34;5091346;28;19989;-77
2022/09/13 07:07:01;;;;;;;;;;;;;;;17.00;69.74;100575.47;5068301;28;19920;-77
2022/09/13 07:09:26;;;;;;;;;;;;;;;17.00;68.06;100575.47;5089804;28;20380;-77
2022/09/13 07:11:53;;;;;;;;;;;;;;;17.02;68.47;100576.28;5082638;28;20007;-77
2022/09/13 07:14:20;;;;;;;;;;;;;;;17.02;68.26;100578.91;5086444;28;19928;-77
2022/09/13 07:16:46;;;;;;;;;;;;;;;17.02;68.17;100581.50;5087924;28;20439;-77
2022/09/13 07:19:12;;;;;;;;;;;;;;;17.02;67.67;100579.75;5087519;28;19928;-76
2022/09/13 07:21:38;;;;;;;;;;;;;;;17.06;67.79;100581.25;5090171;28;20456;-77
2022/09/13 07:24:03;;;;;;;;;;;;;;;17.08;67.67;100577.72;5086753;28;20023;-77
2022/09/13 07:26:30;;;;;;;;;;;;;;;17.08;67.10;100573.34;5094586;28;19924;-77
2022/09/13 07:28:56;;;;;;;;;;;;;;;17.12;68.16;100580.09;5087154;28;19932;-77
2022/09/13 07:31:23;;;;;;;;;;;;;;;17.12;68.29;100579.25;5087535;28;20554;-77
2022/09/13 07:33:55;;;;;;;;;;;;;;;17.15;68.96;100579.09;5088345;28;20388;-77
2022/09/13 07:36:21;;;;;;;;;;;;;;;17.15;68.52;100585.19;5085286;28;19928;-77
2022/09/13 07:38:49;;;;;;;;;;;;;;;17.16;68.43;100586.06;5088217;28;20269;-77
2022/09/13 07:41:16;;;;;;;;;;;;;;;17.19;68.81;100576.25;5087926;28;20424;-77
2022/09/13 07:43:42;;;;;;;;;;;;;;;17.19;69.91;100580.66;5085241;28;19918;-77
2022/09/13 07:46:08;;;;;;;;;;;;;;;17.22;69.64;100583.97;5087614;28;20526;-77
2022/09/13 07:48:35;;;;;;;;;;;;;;;17.26;69.88;100587.28;5092548;28;20016;-77
2022/09/13 07:51:01;;;;;;;;;;;;;;;17.28;70.01;100585.44;5089690;28;20262;-77
2022/09/13 07:53:27;;;;;;;;;;;;;;;17.27;70.04;100587.19;5090645;28;19967;-77
2022/09/13 07:55:53;;;;;;;;;;;;;;;17.30;69.95;100591.44;5095214;28;19920;-77
2022/09/13 07:58:18;;;;;;;;;;;;;;;17.31;69.31;100593.16;5091458;28;20485;-77
2022/09/13 08:00:44;;;;;;;;;;;;;;;17.33;69.59;100592.13;5082998;28;19920;-77
2022/09/13 08:03:10;;;;;;;;;;;;;;;17.34;67.42;100590.38;5078315;28;19920;-77
2022/09/13 08:05:39;;;;;;;;;;;;;;;17.37;68.38;100593.69;5090934;28;19916;-77
2022/09/13 08:08:06;;;;;;;;;;;;;;;17.39;69.23;100591.81;5087146;28;19927;-77
2022/09/13 08:10:31;;;;;;;;;;;;;;;17.40;68.32;100587.41;5092569;28;19920;-77
2022/09/13 08:12:56;;;;;;;;;;;;;;;17.42;68.24;100578.53;5096725;28;20415;-77
2022/09/13 08:15:22;;;;;;;;;;;;;;;17.43;69.22;100584.63;5089022;28;19920;-77
2022/09/13 08:17:47;;;;;;;;;;;;;;;17.45;68.98;100588.03;5090094;28;19920;-77
2022/09/13 08:20:13;;;;;;;;;;;;;;;17.46;67.83;100573.97;5091920;28;19935;-77
2022/09/13 08:22:38;;;;;;;;;;;;;;;17.48;68.23;100574.72;5070414;28;20031;-76
2022/09/13 08:25:03;;;;;;;;;;;;;;;17.49;68.52;100572.03;5068201;28;19928;-77
2022/09/13 08:27:29;;;;;;;;;;;;;;;17.50;67.87;100572.91;5093272;28;19924;-77
2022/09/13 08:29:54;;;;;;;;;;;;;;;17.51;67.48;100582.44;5090723;28;19979;-77
2022/09/13 08:32:19;;;;;;;;;;;;;;;17.51;68.02;100574.56;5090070;28;20002;-77
2022/09/13 08:34:45;;;;;;;;;;;;;;;17.52;66.55;100581.53;5095622;28;19927;-77
2022/09/13 08:37:11;;;;;;;;;;;;;;;17.54;66.76;100579.66;5097574;28;20019;-77
2022/09/13 08:39:37;;;;;;;;;;;;;;;17.56;66.85;100585.72;5094624;28;19975;-76
2022/09/13 08:42:06;;;;;;;;;;;;;;;17.58;66.95;100583.84;5084141;28;20018;-77
2022/09/13 08:44:40;;;;;;;;;;;;;;;17.57;66.83;100588.25;5091249;28;20442;-77
2022/09/13 08:47:24;;;;;;;;;;;;;;;17.56;68.24;100585.72;5091352;28;19958;-77
2022/09/13 08:49:54;;;;;;;;;;;;;;;17.56;68.44;100583.09;5091144;28;20392;-77
2022/09/13 08:52:19;;;;;;;;;;;;;;;17.56;67.93;100585.72;5090807;28;19919;-77
2022/09/13 08:54:45;;;;;;;;;;;;;;;17.55;68.58;100582.22;5090570;28;19920;-77
2022/09/13 08:57:10;;;;;;;;;;;;;;;17.60;67.52;100576.75;5084025;28;20458;-77
2022/09/13 08:59:35;;;;;;;;;;;;;;;17.62;66.36;100582.75;5095214;28;19926;-77
2022/09/13 09:02:19;;;;;;;;;;;;;;;17.62;65.98;100580.13;5095029;28;20368;-77
2022/09/13 09:04:49;;;;;;;;;;;;;;;17.64;66.82;100583.56;5090173;28;19959;-77
2022/09/13 09:07:20;;;;;;;;;;;;;;;17.63;66.78;100584.47;5089334;28;20340;-77
2022/09/13 09:09:50;;;;;;;;;;;;;;;17.62;68.24;100590.63;5090116;28;20549;-77
2022/09/13 09:12:22;;;;;;;;;;;;;;;17.65;66.51;100592.28;5073357;28;19917;-77
2022/09/13 09:14:57;;;;;;;;;;;;;;;17.62;67.92;100593.25;5086256;28;20311;-77
2022/09/13 09:17:26;;;;;;;;;;;;;;;17.65;66.24;100585.22;5092214;28;20428;-77
2022/09/13 09:19:55;;;;;;;;;;;;;;;17.67;65.70;100590.41;5091964;28;19912;-77
2022/09/13 09:22:23;;;;;;;;;;;;;;;17.65;65.76;100593.09;5071411;28;19912;-77
2022/09/13 09:24:50;;;;;;;;;;;;;;;17.65;67.52;100600.97;5089156;28;20013;-77
2022/09/13 09:27:16;;;;;;;;;;;;;;;17.64;68.18;100598.47;5090264;28;19920;-76
2022/09/13 09:29:45;;;;;;;;;;;;;;;17.65;66.93;100597.53;5077402;28;20276;-77
2022/09/13 09:32:22;;;;;;;;;;;;;;;17.67;68.01;100591.28;5089161;28;20392;-77
2022/09/13 09:35:04;;;;;;;;;;;;;;;17.70;65.75;100598.13;5091047;28;20453;-77
2022/09/13 09:37:30;;;;;;;;;;;;;;;17.72;66.96;100601.53;5083477;28;19920;-77
2022/09/13 09:40:01;;;;;;;;;;;;;;;17.69;67.16;100596.44;5087919;28;19926;-77
2022/09/13 09:42:28;;;;;;;;;;;;;;;17.73;65.91;100600.59;5088931;28;19923;-77
2022/09/13 09:45:00;;;;;;;;;;;;;;;17.72;66.92;100594.50;5088432;28;20321;-77
2022/09/13 09:47:31;;;;;;;;;;;;;;;17.78;65.53;100593.31;5093975;28;19919;-77
2022/09/13 09:50:09;;;;;;;;;;;;;;;17.91;62.95;100583.84;5090693;28;19916;-77
2022/09/13 09:52:35;;;;;;;;;;;;;;;17.93;63.40;100593.34;5086514;28;20277;-77
2022/09/13 09:55:09;;;;;;;;;;;;;;;17.84;64.40;100596.47;5089647;28;19924;-77
2022/09/13 09:58:05;;;;;;;;;;;;;;;17.87;64.79;100598.06;5090366;28;19974;-77
2022/09/13 10:00:35;;;;;;;;;;;;;;;17.88;64.22;100594.53;5075350;28;19931;-77
2022/09/13 10:03:06;;;;;;;;;;;;;;;17.84;66.09;100603.50;5091234;28;19919;-77
2022/09/13 10:05:33;;;;;;;;;;;;;;;17.84;65.60;100604.34;5087294;28;20418;-77
2022/09/13 10:08:00;;;;;;;;;;;;;;;17.81;67.00;100599.25;5088729;28;19916;-77
2022/09/13 10:10:31;;;;;;;;;;;;;;;17.89;63.85;100585.69;5086111;28;19920;-77
2022/09/13 10:12:58;;;;;;;;;;;;;;;17.92;63.73;100586.38;5089418;28;19956;-77
2022/09/13 10:15:26;;;;;;;;;;;;;;;17.99;63.11;100577.25;5092576;28;20372;-77
2022/09/13 10:18:01;;;;;;;;;;;;;;;18.11;62.24;100579.19;5089814;28;20355;-77
2022/09/13 10:20:27;;;;;;;;;;;;;;;18.04;62.36;100577.84;5089558;28;20295;-77
2022/09/13 10:23:15;;;;;;;;;;;;;;;18.01;65.08;100580.63;5090903;28;19922;-77
2022/09/13 10:25:42;;;;;;;;;;;;;;;17.87;66.83;100572.66;5079592;28;19916;-77
2022/09/13 10:28:11;;;;;;;;;;;;;;;17.85;67.42;100579.78;5090574;28;20423;-77
2022/09/13 10:30:39;;;;;;;;;;;;;;;17.98;64.62;100570.28;5095006;28;19927;-79
2022/09/13 10:33:07;;;;;;;;;;;;;;;17.99;66.57;100564.09;5088919;28;19961;-79
2022/09/13 10:35:32;;;;;;;;;;;;;;;18.03;64.24;100557.75;5090775;28;20007;-79
2022/09/13 10:37:58;;;;;;;;;;;;;;;17.95;66.96;100556.44;5086753;28;20008;-79
2022/09/13 10:40:32;;;;;;;;;;;;;;;18.18;63.99;100549.94;5087520;28;20348;-79
2022/09/13 10:43:00;;;;;;;;;;;;;;;18.23;63.14;100546.13;5081502;28;20296;-80
2022/09/13 10:45:27;;;;;;;;;;;;;;;18.23;63.46;100550.53;5082234;28;19920;-79
2022/09/13 10:47:54;;;;;;;;;;;;;;;18.05;66.12;100558.50;5089338;28;19916;-79
2022/09/13 10:50:24;;;;;;;;;;;;;;;18.06;67.18;100554.97;5091947;28;19990;-79
2022/09/13 10:53:13;;;;;;;;;;;;;;;17.99;67.93;100550.97;5089524;28;19924;-79
2022/09/13 10:55:42;;;;;;;;;;;;;;;18.09;65.33;100552.13;5077419;28;19923;-80
2022/09/13 10:58:08;;;;;;;;;;;;;;;18.13;64.92;100543.16;5081680;28;20013;-79
2022/09/13 11:00:51;;;;;;;;;;;;;;;18.11;64.58;100537.13;5081548;28;20347;-79
2022/09/13 11:03:36;;;;;;;;;;;;;;;18.27;63.50;100536.28;5080884;28;20010;-79
2022/09/13 11:06:10;;;;;;;;;;;;;;;18.12;65.77;100532.75;5086343;28;20001;-79
2022/09/13 11:08:41;;;;;;;;;;;;;;;18.47;62.33;100531.63;5088964;28;19981;-79
2022/09/13 11:11:35;;;;;;;;;;;;;;;18.39;63.48;100530.34;5083975;28;19920;-79
2022/09/13 11:14:12;;;;;;;;;;;;;;;18.13;67.72;100534.41;5073194;28;19958;-79
2022/09/13 11:16:37;;;;;;;;;;;;;;;18.13;66.33;100530.00;5071463;28;19908;-79
2022/09/13 11:19:19;;;;;;;;;;;;;;;18.42;63.79;100522.28;5084932;28;19927;-79
2022/09/13 11:22:03;;;;;;;;;;;;;;;18.18;67.23;100522.69;5093069;28;19916;-79
2022/09/13 11:24:43;;;;;;;;;;;;;;;18.59;63.47;100514.28;5094503;28;19920;-79
2022/09/13 11:27:16;;;;;;;;;;;;;;;18.42;65.24;100517.84;5090806;28;19920;-79
2022/09/13 11:29:41;;;;;;;;;;;;;;;18.51;62.94;100504.19;5096269;28;19967;-79
2022/09/13 11:32:12;;;;;;;;;;;;;;;19.08;59.83;100505.16;5090499;28;19975;-79
2022/09/13 11:34:50;;;;;;;;;;;;;;;18.53;65.53;100510.22;5086662;28;19977;-79
2022/09/13 11:37:34;;;;;;;;;;;;;;;18.78;61.01;100501.72;5086696;28;20361;-79
2022/09/13 11:40:18;;;;;;;;;;;;;;;18.72;61.90;100511.78;5090045;28;20373;-80
2022/09/13 11:43:05;;;;;;;;;;;;;;;18.61;62.86;100507.13;5089008;28;19927;-79
2022/09/13 11:45:57;;;;;;;;;;;;;;;18.91;60.83;100502.72;5095000;28;20057;-80
2022/09/13 11:48:22;;;;;;;;;;;;;;;18.57;64.08;100505.66;5086822;28;19920;-79
2022/09/13 11:50:50;;;;;;;;;;;;;;;18.51;62.41;100506.81;5091353;28;19920;-79
2022/09/13 11:53:34;;;;;;;;;;;;;;;18.85;60.02;100508.34;5091822;28;19927;-79
2022/09/13 11:56:02;;;;;;;;;;;;;;;18.77;61.81;100507.09;5093008;28;19928;-79
2022/09/13 11:58:57;;;;;;;;;;;;;;;18.68;62.05;100513.75;5071261;28;20308;-79
2022/09/13 12:01:27;;;;;;;;;;;;;;;18.66;62.48;100512.97;5078438;28;20429;-79
2022/09/13 12:03:59;;;;;;;;;;;;;;;18.46;63.17;100514.13;5093083;28;19920;-79
2022/09/13 12:06:35;;;;;;;;;;;;;;;18.52;62.52;100507.66;5092392;28;19946;-79
2022/09/13 12:09:12;;;;;;;;;;;;;;;18.34;65.63;100512.16;5091464;28;20385;-79
2022/09/13 12:11:40;;;;;;;;;;;;;;;18.85;61.03;100503.06;5092101;28;19928;-79
2022/09/13 12:14:11;;;;;;;;;;;;;;;18.85;60.19;100500.44;5091455;28;20007;-79
2022/09/13 12:16:36;;;;;;;;;;;;;;;18.96;60.08;100490.09;5066131;28;20408;-79
2022/09/13 12:19:11;;;;;;;;;;;;;;;18.52;65.30;100500.63;5089655;28;19970;-79
2022/09/13 12:21:38;;;;;;;;;;;;;;;18.86;61.21;100491.63;5090434;28;19995;-79
2022/09/13 12:24:16;;;;;;;;;;;;;;;18.66;61.67;100489.28;5092096;28;19919;-79
2022/09/13 12:27:01;;;;;;;;;;;;;;;18.49;65.87;100492.06;5087934;28;19993;-79
2022/09/13 12:29:31;;;;;;;;;;;;;;;18.38;66.79;100478.66;5089479;28;19916;-79
2022/09/13 12:32:01;;;;;;;;;;;;;;;18.36;66.97;100475.28;5088693;28;19927;-79
2022/09/13 12:34:33;;;;;;;;;;;;;;;18.30;67.67;100475.63;5091543;28;20013;-79
2022/09/13 12:37:08;;;;;;;;;;;;;;;18.24;68.17;100476.84;5090340;28;19927;-79
2022/09/13 12:39:48;;;;;;;;;;;;;;;18.30;67.69;100475.63;5086267;28;20345;-79
2022/09/13 12:42:26;;;;;;;;;;;;;;;18.59;64.40;100467.78;5091747;28;19928;-79
2022/09/13 12:44:51;;;;;;;;;;;;;;;18.73;62.09;100468.72;5073726;28;20003;-79
2022/09/13 12:47:16;;;;;;;;;;;;;;;18.56;66.15;100472.38;5090869;28;20055;-79